Time;durP1;ratioP1;P1;durP2;ratioP2;P2;SDS_P1;SDS_P2;PMS_P1;PMS_P2;Temp;Humidity;BMP_temperature;BMP_pressure;BME280_temperature;BME280_humidity;BME280_pressure;Samples;Min_cycle;Max_cycle;Signal;HPM_P1;HPM_P2
2024/01/05 00:00:42;;;;;;;0.65;0.50;;;;;;;;;;5019539;28;20320;-72
2024/01/05 00:03:09;;;;;;;0.90;0.30;;;;;;;;;;5018502;28;20659;-72
2024/01/05 00:05:38;;;;;;;0.50;0.50;;;;;;;;;;5018574;28;20214;-72
2024/01/05 00:08:06;;;;;;;0.82;0.43;;;;;;;;;;5018662;28;20212;-72
2024/01/05 00:10:33;;;;;;;0.90;0.40;;;;;;;;;;5019126;28;20589;-72
2024/01/05 00:13:01;;;;;;;1.02;0.50;;;;;;;;;;5018547;28;20496;-72
2024/01/05 00:15:28;;;;;;;0.40;0.40;;;;;;;;;;5018940;28;20208;-72
2024/01/05 00:17:57;;;;;;;0.73;0.50;;;;;;;;;;5018411;28;20459;-72
2024/01/05 00:20:25;;;;;;;1.08;0.40;;;;;;;;;;5025998;28;20339;-73
2024/01/05 00:22:52;;;;;;;0.50;0.40;;;;;;;;;;5038547;28;20467;-72
2024/01/05 00:25:21;;;;;;;0.50;0.50;;;;;;;;;;5037974;28;20214;-72
2024/01/05 00:27:49;;;;;;;0.75;0.50;;;;;;;;;;5037806;28;20225;-72
2024/01/05 00:30:16;;;;;;;0.45;0.40;;;;;;;;;;5038472;28;20580;-72
2024/01/05 00:32:45;;;;;;;0.65;0.60;;;;;;;;;;5037718;28;20213;-72
2024/01/05 00:35:14;;;;;;;0.85;0.70;;;;;;;;;;5038103;28;20220;-72
2024/01/05 00:37:41;;;;;;;0.68;0.50;;;;;;;;;;5038468;28;20282;-73
2024/01/05 00:40:09;;;;;;;0.90;0.60;;;;;;;;;;5038152;28;20237;-73
2024/01/05 00:42:36;;;;;;;0.70;0.50;;;;;;;;;;5037936;28;20206;-72
2024/01/05 00:45:05;;;;;;;1.42;0.63;;;;;;;;;;5038078;28;20268;-72
2024/01/05 00:47:32;;;;;;;0.52;0.50;;;;;;;;;;5037970;28;20304;-72
2024/01/05 00:49:59;;;;;;;0.30;0.30;;;;;;;;;;5037726;28;20241;-72
2024/01/05 00:52:28;;;;;;;0.70;0.40;;;;;;;;;;5038433;28;20280;-72
2024/01/05 00:54:56;;;;;;;0.60;0.50;;;;;;;;;;5037915;28;20213;-72
2024/01/05 00:57:23;;;;;;;0.52;0.47;;;;;;;;;;5037488;28;20256;-72
2024/01/05 00:59:51;;;;;;;0.93;0.50;;;;;;;;;;5038125;28;20213;-72
2024/01/05 01:02:18;;;;;;;1.50;0.52;;;;;;;;;;5037557;28;20324;-72
2024/01/05 01:04:46;;;;;;;1.63;0.73;;;;;;;;;;5037478;28;20255;-72
2024/01/05 01:07:13;;;;;;;0.60;0.43;;;;;;;;;;5036892;28;20198;-72
2024/01/05 01:09:42;;;;;;;0.50;0.50;;;;;;;;;;5037767;28;20209;-72
2024/01/05 01:12:10;;;;;;;0.88;0.63;;;;;;;;;;5037753;28;20460;-72
2024/01/05 01:14:38;;;;;;;0.75;0.30;;;;;;;;;;5037705;28;20209;-72
2024/01/05 01:17:05;;;;;;;0.85;0.50;;;;;;;;;;5037377;28;20205;-72
2024/01/05 01:19:32;;;;;;;0.60;0.50;;;;;;;;;;5037174;28;20206;-72
2024/01/05 01:22:00;;;;;;;1.15;0.50;;;;;;;;;;5036736;28;20261;-72
2024/01/05 01:24:27;;;;;;;0.82;0.40;;;;;;;;;;5037156;28;20206;-72
2024/01/05 01:26:57;;;;;;;0.73;0.50;;;;;;;;;;5037727;28;20268;-72
2024/01/05 01:29:25;;;;;;;1.15;0.57;;;;;;;;;;5037581;28;20206;-72
2024/01/05 01:31:52;;;;;;;0.50;0.40;;;;;;;;;;5036719;28;20594;-72
2024/01/05 01:34:19;;;;;;;0.55;0.40;;;;;;;;;;5036954;28;20565;-72
2024/01/05 01:36:47;;;;;;;0.30;0.30;;;;;;;;;;5037311;28;20267;-72
2024/01/05 01:39:15;;;;;;;0.85;0.40;;;;;;;;;;5036634;28;20202;-72
2024/01/05 01:41:43;;;;;;;0.50;0.40;;;;;;;;;;5036542;28;20229;-72
2024/01/05 01:44:12;;;;;;;0.70;0.70;;;;;;;;;;5037595;28;20205;-72
2024/01/05 01:46:40;;;;;;;1.20;0.60;;;;;;;;;;5037010;28;20829;-73
2024/01/05 01:49:07;;;;;;;0.55;0.50;;;;;;;;;;5036781;28;20245;-72
2024/01/05 01:51:36;;;;;;;0.55;0.50;;;;;;;;;;5036605;28;20205;-72
2024/01/05 01:54:05;;;;;;;0.50;0.40;;;;;;;;;;5037203;28;20209;-72
2024/01/05 01:56:33;;;;;;;0.50;0.40;;;;;;;;;;5036804;28;20290;-72
2024/01/05 01:59:01;;;;;;;0.82;0.40;;;;;;;;;;5037178;28;20214;-72
2024/01/05 02:01:30;;;;;;;0.80;0.50;;;;;;;;;;5036323;28;20328;-72
2024/01/05 02:03:57;;;;;;;0.60;0.50;;;;;;;;;;5036031;28;20233;-72
2024/01/05 02:06:25;;;;;;;0.50;0.50;;;;;;;;;;5036393;28;20206;-72
2024/01/05 02:08:53;;;;;;;1.27;0.60;;;;;;;;;;5036833;28;20202;-72
2024/01/05 02:11:20;;;;;;;0.90;0.43;;;;;;;;;;5036227;28;20560;-72
2024/01/05 02:13:48;;;;;;;0.40;0.40;;;;;;;;;;5036803;28;20244;-72
2024/01/05 02:16:15;;;;;;;0.70;0.40;;;;;;;;;;5037322;28;20245;-72
2024/01/05 02:18:53;;;;;;;0.80;0.60;;;;;;;;;;5035980;28;20202;-72
2024/01/05 02:21:23;;;;;;;0.50;0.50;;;;;;;;;;5035992;28;20241;-72
2024/01/05 02:23:53;;;;;;;0.40;0.30;;;;;;;;;;5036526;28;20259;-72
2024/01/05 02:26:21;;;;;;;0.73;0.47;;;;;;;;;;5036263;28;20213;-72
2024/01/05 02:28:49;;;;;;;0.40;0.38;;;;;;;;;;5036195;28;20286;-72
2024/01/05 02:31:16;;;;;;;0.60;0.40;;;;;;;;;;5036232;28;20205;-72
2024/01/05 02:33:44;;;;;;;0.63;0.40;;;;;;;;;;5036403;28;20602;-72
2024/01/05 02:36:12;;;;;;;0.38;0.38;;;;;;;;;;5035856;28;20206;-72
2024/01/05 02:38:39;;;;;;;0.88;0.52;;;;;;;;;;5036012;28;20239;-72
2024/01/05 02:41:09;;;;;;;0.52;0.40;;;;;;;;;;5036234;28;20225;-72
2024/01/05 02:43:37;;;;;;;0.82;0.50;;;;;;;;;;5036158;28;20232;-72
2024/01/05 02:46:04;;;;;;;0.65;0.55;;;;;;;;;;5036481;28;20511;-72
2024/01/05 02:48:33;;;;;;;0.82;0.80;;;;;;;;;;5036056;28;20205;-72
2024/01/05 02:51:00;;;;;;;0.95;0.50;;;;;;;;;;5035782;28;20584;-72
2024/01/05 02:53:28;;;;;;;0.55;0.40;;;;;;;;;;5035968;28;20267;-72
2024/01/05 02:55:56;;;;;;;0.82;0.50;;;;;;;;;;5036377;28;20269;-72
2024/01/05 02:58:25;;;;;;;0.45;0.40;;;;;;;;;;5036310;28;20474;-72
2024/01/05 03:00:53;;;;;;;0.43;0.43;;;;;;;;;;5036044;28;20205;-72
2024/01/05 03:03:21;;;;;;;0.40;0.40;;;;;;;;;;5036169;28;20508;-72
2024/01/05 03:05:48;;;;;;;0.73;0.55;;;;;;;;;;5036249;28;20206;-72
2024/01/05 03:08:16;;;;;;;0.50;0.40;;;;;;;;;;5035980;28;20213;-72
2024/01/05 03:10:44;;;;;;;0.32;0.32;;;;;;;;;;5036137;28;20271;-72
2024/01/05 03:13:11;;;;;;;0.93;0.57;;;;;;;;;;5035985;28;20205;-72
2024/01/05 03:15:41;;;;;;;0.50;0.40;;;;;;;;;;5035992;28;20213;-72
2024/01/05 03:18:08;;;;;;;1.38;0.55;;;;;;;;;;5035536;28;20595;-72
2024/01/05 03:20:36;;;;;;;1.02;0.52;;;;;;;;;;5035466;28;20233;-72
2024/01/05 03:23:04;;;;;;;1.00;0.60;;;;;;;;;;5036123;28;20315;-72
2024/01/05 03:25:33;;;;;;;0.80;0.50;;;;;;;;;;5035166;28;20210;-72
2024/01/05 03:28:00;;;;;;;0.90;0.50;;;;;;;;;;5035773;28;20206;-72
2024/01/05 03:30:28;;;;;;;0.43;0.40;;;;;;;;;;5036124;28;20206;-72
2024/01/05 03:32:57;;;;;;;0.70;0.40;;;;;;;;;;5039662;28;20256;-72
2024/01/05 03:35:25;;;;;;;0.40;0.40;;;;;;;;;;5039317;28;20205;-72
2024/01/05 03:37:53;;;;;;;0.60;0.60;;;;;;;;;;5038981;28;20209;-72
2024/01/05 03:40:20;;;;;;;0.50;0.40;;;;;;;;;;5039359;28;20527;-72
2024/01/05 03:42:48;;;;;;;0.63;0.38;;;;;;;;;;5039342;28;20232;-72
2024/01/05 03:45:16;;;;;;;0.40;0.40;;;;;;;;;;5039230;28;20205;-72
2024/01/05 03:47:44;;;;;;;0.85;0.40;;;;;;;;;;5038484;28;20289;-72
2024/01/05 03:50:13;;;;;;;0.60;0.60;;;;;;;;;;5038660;28;20271;-72
2024/01/05 03:52:41;;;;;;;0.60;0.55;;;;;;;;;;5038829;28;20730;-72
2024/01/05 03:55:09;;;;;;;0.75;0.60;;;;;;;;;;5038679;28;20206;-72
2024/01/05 03:57:37;;;;;;;1.30;0.60;;;;;;;;;;5039053;28;20206;-72
2024/01/05 04:00:05;;;;;;;0.52;0.47;;;;;;;;;;5038664;28;20217;-72
2024/01/05 04:02:32;;;;;;;0.40;0.40;;;;;;;;;;5038284;28;20235;-72
2024/01/05 04:05:00;;;;;;;0.68;0.50;;;;;;;;;;5038808;28;20205;-72
2024/01/05 04:07:29;;;;;;;0.40;0.40;;;;;;;;;;5038610;28;20212;-72
2024/01/05 04:09:57;;;;;;;1.10;0.50;;;;;;;;;;5038804;28;20754;-72
2024/01/05 04:12:25;;;;;;;0.40;0.40;;;;;;;;;;5038627;28;20201;-72
2024/01/05 04:14:52;;;;;;;0.95;0.50;;;;;;;;;;5039139;28;20228;-72
2024/01/05 04:17:20;;;;;;;1.08;0.50;;;;;;;;;;5038588;28;20576;-72
2024/01/05 04:19:47;;;;;;;0.50;0.50;;;;;;;;;;5038202;28;20478;-72
2024/01/05 04:22:15;;;;;;;0.40;0.40;;;;;;;;;;5038256;28;20714;-72
2024/01/05 04:24:45;;;;;;;0.60;0.47;;;;;;;;;;5038911;28;20213;-72
2024/01/05 04:27:12;;;;;;;0.93;0.50;;;;;;;;;;5038969;28;20206;-72
2024/01/05 04:29:40;;;;;;;0.73;0.50;;;;;;;;;;5038281;28;20588;-72
2024/01/05 04:32:07;;;;;;;0.63;0.55;;;;;;;;;;5037929;28;20220;-72
2024/01/05 04:34:35;;;;;;;0.63;0.40;;;;;;;;;;5038142;28;20275;-72
2024/01/05 04:37:03;;;;;;;0.60;0.60;;;;;;;;;;5037837;28;20217;-71
2024/01/05 04:39:30;;;;;;;0.77;0.60;;;;;;;;;;5038120;28;20210;-72
2024/01/05 04:41:59;;;;;;;0.70;0.50;;;;;;;;;;5036815;28;20240;-72
2024/01/05 04:44:27;;;;;;;0.65;0.50;;;;;;;;;;5037364;28;20206;-72
2024/01/05 04:46:54;;;;;;;0.70;0.40;;;;;;;;;;5037690;28;20213;-72
2024/01/05 04:49:21;;;;;;;0.50;0.50;;;;;;;;;;5037931;28;20274;-72
2024/01/05 04:51:49;;;;;;;1.55;0.60;;;;;;;;;;5037375;28;20212;-72
2024/01/05 04:54:16;;;;;;;0.77;0.55;;;;;;;;;;5037469;28;20205;-72
2024/01/05 04:56:44;;;;;;;0.70;0.50;;;;;;;;;;5037912;28;20459;-72
2024/01/05 04:59:12;;;;;;;1.00;0.45;;;;;;;;;;5038046;28;20219;-72
2024/01/05 05:01:40;;;;;;;0.50;0.40;;;;;;;;;;5037214;28;20205;-72
2024/01/05 05:04:07;;;;;;;0.40;0.40;;;;;;;;;;5037243;28;20217;-72
2024/01/05 05:06:35;;;;;;;1.40;0.50;;;;;;;;;;5036996;28;20496;-72
2024/01/05 05:09:02;;;;;;;0.60;0.40;;;;;;;;;;5036764;28;20206;-72
2024/01/05 05:11:30;;;;;;;0.93;0.60;;;;;;;;;;5037357;28;20495;-72
2024/01/05 05:13:57;;;;;;;0.55;0.55;;;;;;;;;;5036953;28;20206;-72
2024/01/05 05:16:25;;;;;;;0.70;0.50;;;;;;;;;;5036734;28;20212;-72
2024/01/05 05:18:53;;;;;;;0.73;0.50;;;;;;;;;;5036494;28;20214;-72
2024/01/05 05:21:20;;;;;;;0.95;0.57;;;;;;;;;;5036668;28;20491;-71
2024/01/05 05:23:48;;;;;;;0.57;0.50;;;;;;;;;;5037094;28;20268;-72
2024/01/05 05:26:15;;;;;;;0.60;0.47;;;;;;;;;;5036729;28;20352;-72
2024/01/05 05:28:42;;;;;;;0.63;0.60;;;;;;;;;;5036195;28;20209;-72
2024/01/05 05:31:11;;;;;;;1.15;0.60;;;;;;;;;;5036322;28;20209;-72
2024/01/05 05:33:40;;;;;;;0.88;0.50;;;;;;;;;;5036473;28;20202;-71
2024/01/05 05:36:07;;;;;;;0.65;0.50;;;;;;;;;;5036381;28;20213;-72
2024/01/05 05:38:34;;;;;;;0.60;0.50;;;;;;;;;;5036244;28;20205;-72
2024/01/05 05:41:02;;;;;;;0.70;0.60;;;;;;;;;;5035783;28;20209;-72
2024/01/05 05:43:30;;;;;;;0.60;0.60;;;;;;;;;;5035729;28;20218;-72
2024/01/05 05:45:57;;;;;;;0.68;0.50;;;;;;;;;;5035719;28;20206;-72
2024/01/05 05:48:25;;;;;;;0.63;0.50;;;;;;;;;;5036247;28;20252;-72
2024/01/05 05:50:54;;;;;;;0.90;0.50;;;;;;;;;;5035516;28;20209;-72
2024/01/05 05:53:21;;;;;;;1.10;0.55;;;;;;;;;;5035027;28;20583;-72
2024/01/05 05:55:49;;;;;;;0.80;0.60;;;;;;;;;;5035580;28;20611;-72
2024/01/05 05:58:16;;;;;;;0.60;0.60;;;;;;;;;;5035899;28;20233;-72
2024/01/05 06:00:44;;;;;;;0.75;0.60;;;;;;;;;;5035469;28;20206;-72
2024/01/05 06:03:11;;;;;;;0.60;0.60;;;;;;;;;;5034837;28;20222;-72
2024/01/05 06:05:38;;;;;;;0.70;0.52;;;;;;;;;;5035040;28;20202;-72
2024/01/05 06:08:07;;;;;;;1.42;0.65;;;;;;;;;;5034309;28;20206;-72
2024/01/05 06:10:35;;;;;;;0.95;0.60;;;;;;;;;;5035023;28;20206;-72
2024/01/05 06:13:04;;;;;;;1.23;0.63;;;;;;;;;;5034504;28;20713;-72
2024/01/05 06:15:31;;;;;;;1.00;0.50;;;;;;;;;;5034692;28;20591;-72
2024/01/05 06:17:58;;;;;;;0.50;0.50;;;;;;;;;;5034603;28;20206;-72
2024/01/05 06:20:26;;;;;;;0.60;0.50;;;;;;;;;;5032416;28;20283;-72
2024/01/05 06:22:53;;;;;;;0.55;0.50;;;;;;;;;;5033613;28;20706;-71
2024/01/05 06:25:22;;;;;;;1.15;0.77;;;;;;;;;;5034316;28;20217;-72
2024/01/05 06:27:49;;;;;;;0.70;0.60;;;;;;;;;;5034684;28;20217;-72
2024/01/05 06:30:17;;;;;;;0.90;0.70;;;;;;;;;;5034422;28;20205;-72
2024/01/05 06:32:44;;;;;;;0.63;0.63;;;;;;;;;;5034790;28;20682;-72
2024/01/05 06:35:13;;;;;;;0.50;0.50;;;;;;;;;;5035234;28;20810;-72
2024/01/05 06:37:40;;;;;;;0.60;0.50;;;;;;;;;;5033934;28;20303;-72
2024/01/05 06:40:08;;;;;;;0.90;0.60;;;;;;;;;;5034340;28;20222;-72
2024/01/05 06:42:37;;;;;;;1.80;0.80;;;;;;;;;;5033311;28;20649;-72
2024/01/05 06:45:05;;;;;;;0.60;0.60;;;;;;;;;;5034330;28;20213;-72
2024/01/05 06:47:32;;;;;;;0.50;0.40;;;;;;;;;;5033160;28;20209;-72
2024/01/05 06:49:59;;;;;;;0.70;0.60;;;;;;;;;;5033226;28;20197;-72
2024/01/05 06:52:27;;;;;;;0.57;0.50;;;;;;;;;;5032177;28;20216;-72
2024/01/05 06:54:54;;;;;;;0.82;0.57;;;;;;;;;;5033448;28;20214;-72
2024/01/05 06:57:22;;;;;;;0.60;0.50;;;;;;;;;;5032809;28;20208;-72
2024/01/05 06:59:50;;;;;;;0.60;0.60;;;;;;;;;;5033190;28;20213;-72
2024/01/05 07:02:18;;;;;;;0.63;0.50;;;;;;;;;;5033509;28;20214;-72
2024/01/05 07:04:46;;;;;;;0.90;0.60;;;;;;;;;;5034208;28;20213;-72
2024/01/05 07:07:13;;;;;;;0.50;0.50;;;;;;;;;;5037523;28;20213;-72
2024/01/05 07:09:41;;;;;;;0.73;0.70;;;;;;;;;;5038504;28;20252;-72
2024/01/05 07:12:09;;;;;;;0.60;0.60;;;;;;;;;;5038331;28;20477;-72
2024/01/05 07:14:37;;;;;;;0.63;0.50;;;;;;;;;;5038444;28;20206;-72
2024/01/05 07:17:05;;;;;;;0.60;0.60;;;;;;;;;;5038572;28;20507;-72
2024/01/05 07:19:34;;;;;;;1.17;0.63;;;;;;;;;;5038152;28;20568;-72
2024/01/05 07:22:01;;;;;;;1.25;0.70;;;;;;;;;;5038295;28;20485;-72
2024/01/05 07:24:28;;;;;;;0.68;0.63;;;;;;;;;;5038376;28;20525;-72
2024/01/05 07:26:56;;;;;;;1.60;0.80;;;;;;;;;;5037159;28;20504;-72
2024/01/05 07:29:23;;;;;;;0.88;0.60;;;;;;;;;;5038411;28;20214;-72
2024/01/05 07:31:51;;;;;;;0.70;0.70;;;;;;;;;;5038479;28;20213;-72
2024/01/05 07:34:19;;;;;;;1.42;0.68;;;;;;;;;;5037924;28;20208;-72
2024/01/05 07:36:47;;;;;;;0.80;0.75;;;;;;;;;;5038035;28;20212;-72
2024/01/05 07:39:15;;;;;;;0.68;0.60;;;;;;;;;;5037608;28;20729;-72
2024/01/05 07:41:42;;;;;;;0.60;0.60;;;;;;;;;;5037784;28;20214;-72
2024/01/05 07:44:10;;;;;;;0.60;0.60;;;;;;;;;;5037717;28;20253;-72
2024/01/05 07:46:42;;;;;;;1.70;0.75;;;;;;;;;;5037240;28;20202;-72
2024/01/05 07:49:09;;;;;;;0.80;0.70;;;;;;;;;;5038051;28;20565;-72
2024/01/05 07:51:38;;;;;;;1.95;0.88;;;;;;;;;;5036949;28;20216;-72
2024/01/05 07:54:05;;;;;;;1.20;0.70;;;;;;;;;;5037240;28;20209;-72
2024/01/05 07:56:38;;;;;;;0.50;0.50;;;;;;;;;;5037085;28;20584;-72
2024/01/05 07:59:06;;;;;;;1.15;0.70;;;;;;;;;;5037469;28;20202;-72
2024/01/05 08:01:33;;;;;;;0.70;0.70;;;;;;;;;;5036605;28;20260;-72
2024/01/05 08:04:01;;;;;;;1.00;0.65;;;;;;;;;;5037488;28;20229;-72
2024/01/05 08:06:29;;;;;;;0.85;0.70;;;;;;;;;;5036745;28;20206;-72
2024/01/05 08:08:57;;;;;;;0.90;0.80;;;;;;;;;;5037036;28;20214;-72
2024/01/05 08:11:25;;;;;;;1.00;0.80;;;;;;;;;;5037249;28;20202;-72
2024/01/05 08:13:53;;;;;;;1.00;0.80;;;;;;;;;;5037128;28;20209;-72
2024/01/05 08:16:21;;;;;;;0.70;0.70;;;;;;;;;;5036598;28;20488;-72
2024/01/05 08:18:48;;;;;;;0.85;0.82;;;;;;;;;;5036347;28;20296;-72
2024/01/05 08:21:16;;;;;;;0.80;0.75;;;;;;;;;;5036607;28;20233;-72
2024/01/05 08:23:43;;;;;;;0.93;0.80;;;;;;;;;;5036398;28;20226;-71
2024/01/05 08:26:12;;;;;;;0.85;0.65;;;;;;;;;;5036809;28;20205;-72
2024/01/05 08:28:39;;;;;;;0.90;0.80;;;;;;;;;;5036511;28;20202;-72
2024/01/05 08:31:07;;;;;;;0.60;0.60;;;;;;;;;;5036125;28;20209;-72
2024/01/05 08:33:34;;;;;;;0.95;0.80;;;;;;;;;;5036000;28;20202;-72
2024/01/05 08:36:01;;;;;;;0.70;0.70;;;;;;;;;;5035847;28;20213;-72
2024/01/05 08:38:29;;;;;;;0.80;0.70;;;;;;;;;;5035448;28;20212;-72
2024/01/05 08:40:56;;;;;;;0.70;0.70;;;;;;;;;;5036166;28;20206;-72
2024/01/05 08:43:25;;;;;;;0.70;0.70;;;;;;;;;;5036542;28;20225;-72
2024/01/05 08:45:52;;;;;;;0.63;0.63;;;;;;;;;;5035863;28;20213;-72
2024/01/05 08:48:20;;;;;;;0.80;0.80;;;;;;;;;;5035056;28;20217;-72
2024/01/05 08:50:47;;;;;;;1.00;0.93;;;;;;;;;;5035828;28;20205;-71
2024/01/05 08:53:15;;;;;;;0.70;0.70;;;;;;;;;;5036177;28;20206;-72
2024/01/05 08:55:42;;;;;;;1.05;0.70;;;;;;;;;;5035846;28;20214;-72
2024/01/05 08:58:10;;;;;;;1.48;0.80;;;;;;;;;;5035406;28;20596;-72
2024/01/05 09:00:39;;;;;;;0.75;0.63;;;;;;;;;;5035447;28;20229;-72
2024/01/05 09:03:07;;;;;;;0.60;0.57;;;;;;;;;;5035423;28;20531;-72
2024/01/05 09:05:34;;;;;;;1.02;1.00;;;;;;;;;;5035619;28;20214;-72
2024/01/05 09:08:02;;;;;;;0.95;0.80;;;;;;;;;;5035426;28;20213;-72
2024/01/05 09:10:32;;;;;;;1.27;0.63;;;;;;;;;;5035688;28;20580;-71
2024/01/05 09:13:00;;;;;;;2.55;1.02;;;;;;;;;;5036309;28;20256;-72
2024/01/05 09:15:27;;;;;;;1.63;0.90;;;;;;;;;;5035993;28;20237;-72
2024/01/05 09:17:56;;;;;;;0.88;0.80;;;;;;;;;;5035992;28;20206;-72
2024/01/05 09:20:23;;;;;;;3.30;1.00;;;;;;;;;;5035388;28;20847;-72
2024/01/05 09:22:51;;;;;;;0.90;0.80;;;;;;;;;;5036074;28;20213;-72
2024/01/05 09:25:18;;;;;;;2.58;0.93;;;;;;;;;;5035624;28;20202;-72
2024/01/05 09:27:45;;;;;;;1.17;0.82;;;;;;;;;;5034790;28;20205;-72
2024/01/05 09:30:13;;;;;;;0.70;0.65;;;;;;;;;;5034824;28;20206;-72
2024/01/05 09:32:40;;;;;;;1.10;0.80;;;;;;;;;;5035283;28;20216;-72
2024/01/05 09:35:11;;;;;;;1.42;0.80;;;;;;;;;;5035532;28;20201;-72
2024/01/05 09:37:38;;;;;;;3.15;0.88;;;;;;;;;;5035223;28;20552;-72
2024/01/05 09:40:06;;;;;;;1.38;0.90;;;;;;;;;;5035850;28;20205;-72
2024/01/05 09:42:33;;;;;;;0.88;0.68;;;;;;;;;;5036007;28;20206;-72
2024/01/05 09:45:02;;;;;;;0.82;0.82;;;;;;;;;;5035106;28;20236;-72
2024/01/05 09:47:30;;;;;;;1.13;0.90;;;;;;;;;;5035069;28;20259;-72
2024/01/05 09:49:59;;;;;;;1.13;0.90;;;;;;;;;;5035347;28;20237;-72
2024/01/05 09:52:28;;;;;;;1.85;0.70;;;;;;;;;;5035011;28;20556;-68
2024/01/05 09:54:56;;;;;;;1.27;0.80;;;;;;;;;;5034917;28;20208;-67
2024/01/05 09:57:24;;;;;;;1.85;1.00;;;;;;;;;;5034671;28;20627;-67
2024/01/05 09:59:52;;;;;;;1.90;0.82;;;;;;;;;;5033568;28;20216;-68
2024/01/05 10:02:23;;;;;;;1.05;1.00;;;;;;;;;;5034774;28;20279;-67
2024/01/05 10:04:50;;;;;;;1.30;0.88;;;;;;;;;;5034099;28;20310;-67
2024/01/05 10:07:18;;;;;;;1.10;0.82;;;;;;;;;;5034436;28;20212;-67
2024/01/05 10:09:58;;;;;;;2.53;1.10;;;;;;;;;;5034368;28;20213;-67
2024/01/05 10:12:25;;;;;;;1.25;0.90;;;;;;;;;;5034524;28;20481;-67
2024/01/05 10:15:03;;;;;;;1.80;1.00;;;;;;;;;;5033972;28;20202;-67
2024/01/05 10:17:30;;;;;;;0.90;0.68;;;;;;;;;;5034569;28;20211;-67
2024/01/05 10:20:11;;;;;;;1.58;0.98;;;;;;;;;;5034224;28;20643;-67
2024/01/05 10:22:38;;;;;;;1.20;0.80;;;;;;;;;;5034413;28;20217;-67
2024/01/05 10:25:16;;;;;;;1.13;0.82;;;;;;;;;;5034609;28;20757;-68
2024/01/05 10:27:44;;;;;;;2.20;0.93;;;;;;;;;;5034322;28;20209;-69
2024/01/05 10:30:19;;;;;;;1.58;0.80;;;;;;;;;;5034574;28;20784;-70
2024/01/05 10:32:46;;;;;;;1.67;0.90;;;;;;;;;;5034025;28;20209;-70
2024/01/05 10:35:24;;;;;;;1.52;0.88;;;;;;;;;;5033205;28;20504;-69
2024/01/05 10:38:04;;;;;;;1.38;1.00;;;;;;;;;;5033648;28;20212;-70
2024/01/05 10:40:33;;;;;;;1.33;0.90;;;;;;;;;;5033861;28;20205;-69
2024/01/05 10:43:09;;;;;;;1.42;1.00;;;;;;;;;;5037433;28;20205;-69
2024/01/05 10:45:37;;;;;;;2.13;0.90;;;;;;;;;;5037597;28;20256;-69
2024/01/05 10:48:05;;;;;;;1.05;0.80;;;;;;;;;;5036961;28;20237;-69
2024/01/05 10:50:34;;;;;;;2.92;1.00;;;;;;;;;;5037258;28;20216;-69
2024/01/05 10:53:01;;;;;;;1.05;0.90;;;;;;;;;;5038047;28;20197;-70
2024/01/05 10:55:29;;;;;;;1.23;0.90;;;;;;;;;;5037971;28;20198;-70
2024/01/05 10:57:59;;;;;;;1.77;0.95;;;;;;;;;;5037933;28;20201;-70
2024/01/05 11:00:27;;;;;;;1.08;0.98;;;;;;;;;;5037844;28;20292;-70
2024/01/05 11:02:55;;;;;;;0.82;0.73;;;;;;;;;;5037739;28;20308;-70
2024/01/05 11:05:24;;;;;;;0.95;0.73;;;;;;;;;;5037730;28;20229;-70
2024/01/05 11:07:52;;;;;;;1.38;0.98;;;;;;;;;;5036949;28;20240;-70
2024/01/05 11:10:24;;;;;;;1.55;0.80;;;;;;;;;;5037717;28;20205;-69
2024/01/05 11:12:59;;;;;;;1.83;1.02;;;;;;;;;;5037513;28;20209;-70
2024/01/05 11:15:35;;;;;;;1.20;0.80;;;;;;;;;;5037165;28;20209;-69
2024/01/05 11:18:15;;;;;;;2.17;0.93;;;;;;;;;;5036877;28;20235;-69
2024/01/05 11:20:57;;;;;;;1.50;1.00;;;;;;;;;;5036740;28;20233;-70
2024/01/05 11:23:25;;;;;;;1.27;1.17;;;;;;;;;;5037248;28;20213;-70
2024/01/05 11:25:54;;;;;;;2.15;1.08;;;;;;;;;;5036670;28;20230;-69
2024/01/05 11:28:39;;;;;;;1.98;0.98;;;;;;;;;;5036304;28;20213;-70
2024/01/05 11:31:08;;;;;;;1.50;1.17;;;;;;;;;;5035983;28;20213;-70
2024/01/05 11:33:45;;;;;;;1.73;1.20;;;;;;;;;;5035740;28;20206;-70
2024/01/05 11:36:13;;;;;;;1.88;1.30;;;;;;;;;;5036751;28;20626;-70
2024/01/05 11:38:44;;;;;;;1.50;0.98;;;;;;;;;;5036656;28;20213;-70
2024/01/05 11:41:18;;;;;;;3.25;1.27;;;;;;;;;;5035661;28;20214;-70
2024/01/05 11:43:45;;;;;;;1.52;1.20;;;;;;;;;;5036320;28;20220;-70
2024/01/05 11:46:14;;;;;;;3.40;1.20;;;;;;;;;;5035390;28;20208;-70
2024/01/05 11:48:53;;;;;;;2.90;1.20;;;;;;;;;;5035782;28;20267;-70
2024/01/05 11:51:21;;;;;;;2.45;1.38;;;;;;;;;;5035449;28;20205;-70
2024/01/05 11:53:49;;;;;;;3.03;1.40;;;;;;;;;;5035869;28;20206;-70
2024/01/05 11:56:20;;;;;;;2.22;1.42;;;;;;;;;;5036921;28;20620;-70
2024/01/05 11:58:48;;;;;;;1.92;1.20;;;;;;;;;;5036276;28;20491;-70
2024/01/05 12:01:17;;;;;;;1.90;1.23;;;;;;;;;;5037370;28;20214;-70
2024/01/05 12:03:45;;;;;;;2.50;1.27;;;;;;;;;;5036676;28;20291;-70
2024/01/05 12:06:14;;;;;;;3.20;1.60;;;;;;;;;;5036974;28;20210;-70
2024/01/05 12:08:40;;;;;;;2.42;1.27;;;;;;;;;;5037234;28;20210;-70
2024/01/05 12:11:09;;;;;;;1.63;1.20;;;;;;;;;;5037114;28;20561;-70
2024/01/05 12:13:37;;;;;;;1.90;1.25;;;;;;;;;;5036047;28;20263;-70
2024/01/05 12:16:05;;;;;;;2.75;1.60;;;;;;;;;;5035443;28;20237;-70
2024/01/05 12:18:35;;;;;;;2.60;1.33;;;;;;;;;;5036058;28;20252;-70
2024/01/05 12:21:03;;;;;;;2.28;1.52;;;;;;;;;;5036459;28;20536;-71
2024/01/05 12:23:31;;;;;;;2.97;1.40;;;;;;;;;;5035805;28;20497;-70
2024/01/05 12:25:58;;;;;;;2.75;1.33;;;;;;;;;;5034549;28;20321;-70
2024/01/05 12:28:25;;;;;;;1.73;1.17;;;;;;;;;;5036125;28;20243;-70
2024/01/05 12:30:54;;;;;;;2.30;1.25;;;;;;;;;;5035440;28;20201;-70
2024/01/05 12:33:21;;;;;;;2.45;1.42;;;;;;;;;;5035001;28;20205;-70
2024/01/05 12:35:52;;;;;;;2.38;1.50;;;;;;;;;;5033806;28;20194;-70
2024/01/05 12:38:23;;;;;;;2.95;1.55;;;;;;;;;;5035928;28;20254;-70
2024/01/05 12:40:50;;;;;;;2.30;1.23;;;;;;;;;;5035957;28;20248;-70
2024/01/05 12:43:17;;;;;;;2.55;1.30;;;;;;;;;;5035451;28;20470;-70
2024/01/05 12:45:48;;;;;;;2.33;1.30;;;;;;;;;;5036048;28;20283;-71
2024/01/05 12:48:17;;;;;;;2.25;1.17;;;;;;;;;;5035788;28;20482;-70
2024/01/05 12:50:45;;;;;;;1.98;1.33;;;;;;;;;;5035535;28;20217;-70
2024/01/05 12:53:23;;;;;;;2.22;1.45;;;;;;;;;;5036455;28;20217;-70
2024/01/05 12:55:51;;;;;;;2.15;1.15;;;;;;;;;;5036628;28;20209;-70
2024/01/05 12:58:19;;;;;;;2.20;1.30;;;;;;;;;;5036847;28;20506;-70
2024/01/05 13:00:46;;;;;;;1.75;1.20;;;;;;;;;;5036438;28;20205;-70
2024/01/05 13:03:17;;;;;;;1.77;1.15;;;;;;;;;;5034818;28;20638;-70
2024/01/05 13:05:44;;;;;;;2.20;1.30;;;;;;;;;;5036291;28;20513;-70
2024/01/05 13:08:12;;;;;;;2.65;1.35;;;;;;;;;;5036563;28;20205;-70
2024/01/05 13:10:41;;;;;;;2.03;1.05;;;;;;;;;;5036280;28;20603;-70
2024/01/05 13:13:09;;;;;;;1.40;1.15;;;;;;;;;;5036938;28;20202;-71
2024/01/05 13:15:36;;;;;;;1.40;1.30;;;;;;;;;;5035593;28;20238;-70
2024/01/05 13:18:04;;;;;;;1.85;1.13;;;;;;;;;;5036282;28;20210;-70
2024/01/05 13:20:31;;;;;;;1.70;1.23;;;;;;;;;;5036511;28;20226;-70
2024/01/05 13:22:59;;;;;;;1.80;1.10;;;;;;;;;;5036611;28;20216;-70
2024/01/05 13:25:26;;;;;;;1.63;1.08;;;;;;;;;;5035438;28;20280;-70
2024/01/05 13:27:58;;;;;;;1.60;1.13;;;;;;;;;;5035430;28;20217;-71
2024/01/05 13:30:25;;;;;;;1.02;0.90;;;;;;;;;;5036218;28;20609;-70
2024/01/05 13:32:52;;;;;;;2.47;1.20;;;;;;;;;;5035835;28;20198;-70
2024/01/05 13:35:19;;;;;;;1.88;1.10;;;;;;;;;;5035184;28;20202;-70
2024/01/05 13:37:48;;;;;;;1.20;1.00;;;;;;;;;;5035183;28;20205;-70
2024/01/05 13:40:17;;;;;;;1.70;1.00;;;;;;;;;;5035310;28;20205;-71
2024/01/05 13:42:44;;;;;;;1.98;1.20;;;;;;;;;;5034155;28;20587;-70
2024/01/05 13:45:13;;;;;;;1.90;1.10;;;;;;;;;;5035021;28;20240;-70
2024/01/05 13:47:40;;;;;;;1.00;0.82;;;;;;;;;;5029016;28;20198;-70
2024/01/05 13:50:08;;;;;;;1.88;1.15;;;;;;;;;;5015730;28;20274;-71
2024/01/05 13:52:35;;;;;;;1.63;1.00;;;;;;;;;;5015707;28;20202;-70
2024/01/05 13:55:03;;;;;;;1.80;1.15;;;;;;;;;;5016083;28;20475;-70
2024/01/05 13:57:30;;;;;;;2.70;1.30;;;;;;;;;;5016155;28;20229;-71
2024/01/05 13:59:58;;;;;;;1.42;1.02;;;;;;;;;;5016185;28;20206;-70
2024/01/05 14:02:26;;;;;;;2.25;1.33;;;;;;;;;;5015982;28;20217;-71
2024/01/05 14:04:53;;;;;;;1.52;1.08;;;;;;;;;;5015878;28;20237;-70
2024/01/05 14:07:21;;;;;;;1.67;1.00;;;;;;;;;;5015415;28;20203;-70
2024/01/05 14:09:48;;;;;;;1.05;0.90;;;;;;;;;;5014292;28;20224;-70
2024/01/05 14:12:16;;;;;;;1.17;0.90;;;;;;;;;;5015190;28;20221;-70
2024/01/05 14:14:43;;;;;;;1.00;0.90;;;;;;;;;;5014980;28;20210;-70
2024/01/05 14:17:10;;;;;;;1.30;1.08;;;;;;;;;;5015005;28;20217;-70
2024/01/05 14:19:42;;;;;;;1.25;0.98;;;;;;;;;;5014465;28;20560;-70
2024/01/05 14:22:10;;;;;;;1.83;1.30;;;;;;;;;;5014985;28;20328;-70
2024/01/05 14:24:40;;;;;;;1.40;1.30;;;;;;;;;;5013777;28;20257;-70
2024/01/05 14:27:07;;;;;;;1.50;1.05;;;;;;;;;;5015725;28;20229;-70
2024/01/05 14:29:35;;;;;;;0.90;0.80;;;;;;;;;;5014603;28;20592;-70
2024/01/05 14:32:03;;;;;;;1.38;1.00;;;;;;;;;;5014430;28;20666;-70
2024/01/05 14:34:30;;;;;;;1.42;1.00;;;;;;;;;;5015219;28;20218;-70
2024/01/05 14:36:59;;;;;;;1.20;0.90;;;;;;;;;;5014739;28;20217;-70
2024/01/05 14:39:28;;;;;;;1.20;1.00;;;;;;;;;;5015462;28;20222;-70
2024/01/05 14:41:55;;;;;;;1.20;1.10;;;;;;;;;;5014519;28;20218;-71
2024/01/05 14:44:22;;;;;;;1.10;0.98;;;;;;;;;;5015320;28;20221;-70
2024/01/05 14:46:50;;;;;;;2.17;0.95;;;;;;;;;;5015553;28;20230;-71
2024/01/05 14:49:17;;;;;;;1.52;1.00;;;;;;;;;;5015212;28;20210;-70